Time;durP1;ratioP1;P1;durP2;ratioP2;P2;SDS_P1;SDS_P2;PMS_P1;PMS_P2;Temp;Humidity;BMP_temperature;BMP_pressure;BME280_temperature;BME280_humidity;BME280_pressure;Samples;Min_cycle;Max_cycle;Signal;HPM_P1;HPM_P2
2022/05/17 00:00:22;;;;;;;1.10;0.80;;;22.30;44.00;;;;;;6243590;28;20025;-66
2022/05/17 00:03:22;;;;;;;1.20;0.80;;;22.30;43.90;;;;;;6226759;28;20022;-66
2022/05/17 00:06:24;;;;;;;0.98;0.60;;;22.30;43.90;;;;;;6267758;28;20537;-66
2022/05/17 00:09:24;;;;;;;0.80;0.50;;;22.30;43.90;;;;;;6227270;28;20095;-66
2022/05/17 00:12:25;;;;;;;0.77;0.65;;;22.30;44.00;;;;;;6243159;28;20033;-67
2022/05/17 00:15:26;;;;;;;0.57;0.57;;;22.30;43.90;;;;;;6243266;28;20029;-67
2022/05/17 00:18:29;;;;;;;1.42;0.95;;;22.30;43.80;;;;;;6243072;28;20017;-66
2022/05/17 00:21:29;;;;;;;1.00;0.75;;;22.30;43.80;;;;;;6243427;28;20056;-66
2022/05/17 00:24:31;;;;;;;1.08;0.73;;;22.30;43.90;;;;;;6243187;28;20029;-66
2022/05/17 00:27:33;;;;;;;1.73;0.80;;;22.30;43.90;;;;;;6243107;28;20132;-67
2022/05/17 00:30:34;;;;;;;1.65;0.98;;;22.30;43.80;;;;;;6242927;28;20029;-67
2022/05/17 00:33:35;;;;;;;1.30;0.93;;;22.30;43.80;;;;;;6243238;28;20018;-66
2022/05/17 00:36:36;;;;;;;1.05;0.80;;;22.30;43.70;;;;;;6242813;28;20022;-66
2022/05/17 00:39:37;;;;;;;0.82;0.70;;;22.30;43.80;;;;;;6243223;28;20034;-66
2022/05/17 00:42:37;;;;;;;1.25;0.90;;;22.30;43.70;;;;;;6242703;28;20136;-65
2022/05/17 00:45:47;;;;;;;1.50;0.85;;;22.30;43.60;;;;;;6243212;28;20037;-66
2022/05/17 00:48:49;;;;;;;0.88;0.73;;;22.30;43.70;;;;;;6246649;28;20068;-66
2022/05/17 00:51:52;;;;;;;1.33;0.93;;;22.30;43.70;;;;;;6247735;28;20028;-66
2022/05/17 00:54:56;;;;;;;0.80;0.60;;;22.30;43.70;;;;;;6247725;28;20099;-66
2022/05/17 00:58:03;;;;;;;1.08;0.68;;;22.30;43.60;;;;;;6247256;28;20033;-66
2022/05/17 01:01:12;;;;;;;1.05;0.80;;;22.30;43.60;;;;;;6251131;28;20021;-66
2022/05/17 01:04:18;;;;;;;0.60;0.50;;;22.30;43.60;;;;;;6271984;28;20547;-66
2022/05/17 01:07:21;;;;;;;0.90;0.63;;;22.30;43.60;;;;;;6266488;28;20024;-66
2022/05/17 01:10:24;;;;;;;1.10;0.68;;;22.30;43.70;;;;;;6247047;28;20041;-66
2022/05/17 01:16:44;;;;;;;0.90;0.70;;;22.30;43.60;;;;;;6247532;28;20104;-66
2022/05/17 01:19:45;;;;;;;0.85;0.60;;;22.30;43.60;;;;;;6246979;28;20073;-66
2022/05/17 01:22:46;;;;;;;0.47;0.40;;;22.30;43.60;;;;;;6247024;28;20037;-66
2022/05/17 01:25:46;;;;;;;1.08;0.73;;;22.30;43.60;;;;;;6247041;28;20029;-67
2022/05/17 01:28:47;;;;;;;0.60;0.50;;;22.30;43.60;;;;;;6246894;28;20084;-66
2022/05/17 01:31:50;;;;;;;1.58;0.77;;;22.30;43.60;;;;;;6247060;28;20025;-66
2022/05/17 01:34:50;;;;;;;0.70;0.60;;;22.30;43.60;;;;;;6246374;28;20014;-66
2022/05/17 01:37:55;;;;;;;1.10;0.70;;;22.30;43.70;;;;;;6246588;28;20049;-66
2022/05/17 01:40:55;;;;;;;0.63;0.57;;;22.30;43.50;;;;;;6246558;28;20029;-66
2022/05/17 01:43:56;;;;;;;0.70;0.70;;;22.30;43.50;;;;;;6228714;28;20443;-67
2022/05/17 01:46:57;;;;;;;0.93;0.63;;;22.30;43.50;;;;;;6246758;28;20040;-66
2022/05/17 01:49:57;;;;;;;0.57;0.50;;;22.30;43.60;;;;;;6246373;28;20029;-66
2022/05/17 01:52:58;;;;;;;0.70;0.50;;;22.30;43.50;;;;;;6246335;28;20029;-67
2022/05/17 01:56:01;;;;;;;0.77;0.57;;;22.30;43.60;;;;;;6246584;28;20025;-66
2022/05/17 01:59:01;;;;;;;1.13;0.70;;;22.30;43.50;;;;;;6245089;28;20057;-66
2022/05/17 02:02:03;;;;;;;1.52;0.50;;;22.30;43.50;;;;;;6246111;28;20079;-66
2022/05/17 02:05:06;;;;;;;1.30;0.70;;;22.30;43.50;;;;;;6246132;28;20021;-66
2022/05/17 02:08:07;;;;;;;0.82;0.63;;;22.30;43.50;;;;;;6246290;28;20022;-68
2022/05/17 02:11:08;;;;;;;0.50;0.50;;;22.30;43.60;;;;;;6245746;28;20029;-66
2022/05/17 02:14:09;;;;;;;0.40;0.40;;;22.30;43.40;;;;;;6245863;28;20393;-67
2022/05/17 02:17:10;;;;;;;1.00;0.70;;;22.30;43.60;;;;;;6245728;28;20022;-66
2022/05/17 02:20:14;;;;;;;0.65;0.60;;;22.10;45.00;;;;;;6245815;28;20048;-66
2022/05/17 02:23:14;;;;;;;0.90;0.60;;;22.00;45.50;;;;;;6245481;28;20022;-67
2022/05/17 02:26:16;;;;;;;1.15;0.80;;;22.00;45.80;;;;;;6245645;28;20535;-66
2022/05/17 02:29:16;;;;;;;0.80;0.63;;;21.90;46.10;;;;;;6245170;28;20085;-66
2022/05/17 02:32:17;;;;;;;1.10;0.50;;;21.90;46.30;;;;;;6245552;28;20048;-66
2022/05/17 02:35:18;;;;;;;0.93;0.70;;;21.80;46.50;;;;;;6245097;28;20115;-66
2022/05/17 02:38:19;;;;;;;0.68;0.63;;;21.80;47.30;;;;;;6245580;28;20439;-66
2022/05/17 02:41:20;;;;;;;0.60;0.60;;;21.80;46.80;;;;;;6244899;28;20026;-65
2022/05/17 02:44:21;;;;;;;1.17;0.60;;;21.80;47.00;;;;;;6245144;28;20029;-66
2022/05/17 02:47:22;;;;;;;0.68;0.60;;;21.80;47.10;;;;;;6226836;28;20025;-66
2022/05/17 02:50:23;;;;;;;1.38;0.90;;;21.70;47.00;;;;;;6244987;28;20032;-65
2022/05/17 02:53:25;;;;;;;0.82;0.50;;;21.70;47.20;;;;;;6244624;28;20018;-67
2022/05/17 02:56:27;;;;;;;1.13;0.70;;;21.70;47.40;;;;;;6255669;28;20052;-66
2022/05/17 02:59:27;;;;;;;0.90;0.60;;;21.70;47.50;;;;;;6269677;28;20037;-65
2022/05/17 03:02:28;;;;;;;0.85;0.63;;;21.70;47.60;;;;;;6251935;28;20112;-66
2022/05/17 03:05:28;;;;;;;1.17;0.90;;;21.70;47.70;;;;;;6244637;28;20155;-66
2022/05/17 03:08:29;;;;;;;0.73;0.70;;;21.70;47.60;;;;;;6244449;28;20473;-67
2022/05/17 03:11:29;;;;;;;1.80;0.90;;;21.70;47.80;;;;;;6243973;28;20048;-66
2022/05/17 03:14:30;;;;;;;1.20;0.77;;;21.70;47.90;;;;;;6244440;28;20025;-66
2022/05/17 03:17:31;;;;;;;0.98;0.60;;;21.70;48.00;;;;;;6243141;28;20044;-65
2022/05/17 03:20:32;;;;;;;0.95;0.57;;;21.70;48.00;;;;;;6244364;28;20051;-66
2022/05/17 03:23:33;;;;;;;0.80;0.60;;;21.70;48.10;;;;;;6244039;28;20021;-66
2022/05/17 03:26:34;;;;;;;2.35;0.60;;;21.70;48.10;;;;;;6243838;28;20021;-66
2022/05/17 03:29:34;;;;;;;1.10;0.80;;;21.60;48.10;;;;;;6243990;28;20021;-66
2022/05/17 03:32:35;;;;;;;0.50;0.50;;;21.60;48.20;;;;;;6244143;28;20034;-66
2022/05/17 03:35:36;;;;;;;0.68;0.60;;;21.60;48.20;;;;;;6243992;28;20018;-65
2022/05/17 03:38:38;;;;;;;0.85;0.63;;;21.60;48.20;;;;;;6226237;28;20499;-66
2022/05/17 03:41:38;;;;;;;1.02;0.80;;;21.70;48.10;;;;;;6244043;28;20024;-66
2022/05/17 03:44:39;;;;;;;0.65;0.63;;;21.60;48.20;;;;;;6243397;28;20021;-66
2022/05/17 03:47:40;;;;;;;0.47;0.43;;;21.60;48.10;;;;;;6243456;28;20026;-65
2022/05/17 03:50:40;;;;;;;0.65;0.50;;;21.60;48.00;;;;;;6243711;28;20060;-67
2022/05/17 03:53:41;;;;;;;0.77;0.65;;;21.60;48.10;;;;;;6243850;28;20108;-66
2022/05/17 03:56:42;;;;;;;0.70;0.70;;;21.60;47.80;;;;;;6243462;28;20472;-66
2022/05/17 03:59:43;;;;;;;1.05;0.70;;;21.60;48.20;;;;;;6244047;28;20032;-66
2022/05/17 04:02:43;;;;;;;0.75;0.52;;;21.60;47.80;;;;;;6243337;28;20111;-66
2022/05/17 04:05:44;;;;;;;1.05;0.68;;;21.60;47.60;;;;;;6243890;28;20037;-65
2022/05/17 04:08:45;;;;;;;1.23;0.70;;;21.60;47.70;;;;;;6243338;28;20664;-66
2022/05/17 04:11:46;;;;;;;0.80;0.52;;;21.60;47.70;;;;;;6193347;28;20180;-66
2022/05/17 04:14:46;;;;;;;0.70;0.60;;;21.60;47.70;;;;;;6194476;28;20023;-65
2022/05/17 04:17:49;;;;;;;0.90;0.70;;;21.60;47.80;;;;;;6194603;28;20070;-65
2022/05/17 04:20:50;;;;;;;1.35;0.75;;;21.60;47.70;;;;;;6194385;28;20576;-65
2022/05/17 04:23:50;;;;;;;0.70;0.50;;;21.60;47.80;;;;;;6198572;28;20034;-66
2022/05/17 04:26:51;;;;;;;0.82;0.63;;;21.60;47.80;;;;;;6198156;28;20041;-66
2022/05/17 04:29:52;;;;;;;0.60;0.60;;;21.60;47.80;;;;;;6199509;28;20038;-66
2022/05/17 04:32:53;;;;;;;0.82;0.70;;;21.50;47.70;;;;;;6199300;28;20029;-66
2022/05/17 04:35:54;;;;;;;1.10;0.65;;;21.60;47.90;;;;;;6197942;28;20030;-66
2022/05/17 04:38:54;;;;;;;0.60;0.57;;;21.60;47.80;;;;;;6199108;28;20023;-65
2022/05/17 04:41:55;;;;;;;0.40;0.40;;;21.50;47.80;;;;;;6199767;28;20030;-67
2022/05/17 04:44:55;;;;;;;1.05;0.70;;;21.60;47.90;;;;;;6198852;28;20478;-65
2022/05/17 04:47:56;;;;;;;0.60;0.60;;;21.50;47.80;;;;;;6199116;28;20034;-66
2022/05/17 04:50:57;;;;;;;1.30;0.60;;;21.60;48.00;;;;;;6198933;28;20030;-66
2022/05/17 04:53:57;;;;;;;0.55;0.55;;;21.60;48.00;;;;;;6199154;28;20027;-66
2022/05/17 04:56:59;;;;;;;1.35;0.70;;;21.60;48.00;;;;;;6198721;28;20057;-66
2022/05/17 05:00:40;;;;;;;0.80;0.63;;;21.50;47.90;;;;;;6199435;28;20019;-65
2022/05/17 05:03:40;;;;;;;0.40;0.40;;;21.50;48.00;;;;;;6198802;28;20030;-66
2022/05/17 05:06:41;;;;;;;0.50;0.50;;;21.50;48.10;;;;;;6198795;28;20049;-66
2022/05/17 05:09:42;;;;;;;0.70;0.55;;;21.50;48.00;;;;;;6213580;28;20034;-68
2022/05/17 05:12:44;;;;;;;0.98;0.82;;;21.50;48.10;;;;;;6247514;28;20045;-66
2022/05/17 05:15:45;;;;;;;0.70;0.50;;;21.50;48.10;;;;;;6247376;28;20480;-66
2022/05/17 05:18:46;;;;;;;0.90;0.70;;;21.50;48.20;;;;;;6247391;28;20496;-66
2022/05/17 05:21:47;;;;;;;0.60;0.52;;;21.50;48.10;;;;;;6247091;28;20033;-66
2022/05/17 05:24:48;;;;;;;0.60;0.50;;;21.50;48.20;;;;;;6247338;28;20028;-65
2022/05/17 05:27:49;;;;;;;1.15;0.60;;;21.50;48.20;;;;;;6246117;28;20025;-66
2022/05/17 05:30:50;;;;;;;0.50;0.50;;;21.50;48.20;;;;;;6246661;28;20492;-66
2022/05/17 05:33:50;;;;;;;0.82;0.63;;;21.50;48.20;;;;;;6246545;28;20055;-66
2022/05/17 05:36:51;;;;;;;0.60;0.50;;;21.50;48.30;;;;;;6246629;28;20029;-66
2022/05/17 05:39:51;;;;;;;0.88;0.60;;;21.50;48.30;;;;;;6246648;28;20032;-66
2022/05/17 05:42:53;;;;;;;1.13;0.60;;;21.50;48.30;;;;;;6246714;28;20030;-66
2022/05/17 05:45:54;;;;;;;0.60;0.50;;;21.50;48.30;;;;;;6228865;28;20024;-66
2022/05/17 05:48:55;;;;;;;1.25;0.77;;;21.50;48.40;;;;;;6246960;28;20396;-65
2022/05/17 05:51:56;;;;;;;0.60;0.60;;;21.50;48.50;;;;;;6241734;28;20106;-66
2022/05/17 05:54:58;;;;;;;1.00;0.60;;;21.50;48.60;;;;;;6221961;28;20033;-67
2022/05/17 05:57:58;;;;;;;0.73;0.63;;;21.50;49.50;;;;;;6221825;28;20037;-66
2022/05/17 06:00:59;;;;;;;0.65;0.60;;;21.50;48.80;;;;;;6224044;28;20030;-66
2022/05/17 06:04:01;;;;;;;1.73;0.80;;;21.50;48.80;;;;;;6206478;28;20041;-66
2022/05/17 06:07:01;;;;;;;1.45;0.90;;;21.50;49.00;;;;;;6212545;28;20024;-65
2022/05/17 06:10:04;;;;;;;1.10;0.70;;;21.50;49.10;;;;;;6250881;28;20041;-67
2022/05/17 06:13:05;;;;;;;4.57;0.52;;;21.50;49.00;;;;;;6224043;28;20184;-67
2022/05/17 06:16:06;;;;;;;1.15;0.70;;;21.50;49.50;;;;;;6246636;28;20037;-67
2022/05/17 06:19:06;;;;;;;1.02;0.50;;;21.50;49.00;;;;;;6268976;28;20040;-67
2022/05/17 06:22:07;;;;;;;0.73;0.47;;;21.50;49.00;;;;;;6248319;28;20107;-67
2022/05/17 06:25:08;;;;;;;0.65;0.45;;;21.50;49.10;;;;;;6246599;28;20539;-67
2022/05/17 06:28:09;;;;;;;0.73;0.57;;;21.50;49.20;;;;;;6246438;28;20071;-67
2022/05/17 06:31:10;;;;;;;0.80;0.60;;;21.50;49.20;;;;;;6250839;28;20017;-67
2022/05/17 06:34:10;;;;;;;0.65;0.50;;;21.50;49.20;;;;;;6246482;28;20156;-67
2022/05/17 06:37:12;;;;;;;0.85;0.60;;;21.50;49.20;;;;;;6245956;28;20108;-68
2022/05/17 06:40:13;;;;;;;0.60;0.55;;;21.50;49.30;;;;;;6246304;28;20033;-68
2022/05/17 06:43:14;;;;;;;1.30;0.70;;;21.50;49.30;;;;;;6246242;28;20079;-68
2022/05/17 06:46:14;;;;;;;1.50;0.60;;;21.50;49.10;;;;;;6245484;28;20498;-68
2022/05/17 06:49:15;;;;;;;2.53;0.68;;;21.50;49.10;;;;;;6245936;28;20029;-68
2022/05/17 06:52:16;;;;;;;2.08;0.90;;;21.50;49.20;;;;;;6245880;28;20025;-68
2022/05/17 06:55:17;;;;;;;0.52;0.50;;;21.50;49.20;;;;;;6246179;28;20025;-68
2022/05/17 06:58:17;;;;;;;0.75;0.50;;;21.50;49.20;;;;;;6246034;28;20061;-68
2022/05/17 07:01:19;;;;;;;1.40;0.60;;;21.50;49.30;;;;;;6246435;28;20025;-68
2022/05/17 07:04:19;;;;;;;1.10;0.73;;;21.50;49.30;;;;;;6270171;28;20059;-68
2022/05/17 07:07:20;;;;;;;0.73;0.70;;;21.50;49.30;;;;;;6220158;28;20666;-68
2022/05/17 07:13:40;;;;;;;1.27;0.80;;;21.50;50.00;;;;;;6250870;28;20025;-70
2022/05/17 07:16:40;;;;;;;0.88;0.70;;;21.50;49.30;;;;;;6271598;28;20039;-67
2022/05/17 07:19:41;;;;;;;0.82;0.65;;;21.50;49.40;;;;;;6271301;28;20036;-67
2022/05/17 07:22:43;;;;;;;4.32;0.60;;;21.50;49.40;;;;;;6271302;28;20029;-67
2022/05/17 07:25:45;;;;;;;0.80;0.57;;;21.50;49.40;;;;;;6271244;28;20023;-67
2022/05/17 07:28:50;;;;;;;1.00;0.70;;;21.50;49.30;;;;;;6253176;28;20037;-67
2022/05/17 07:31:51;;;;;;;0.70;0.50;;;21.50;49.40;;;;;;6248354;28;20052;-67
2022/05/17 07:34:51;;;;;;;0.60;0.60;;;21.50;49.40;;;;;;6246649;28;20034;-67
2022/05/17 07:37:52;;;;;;;0.57;0.57;;;21.50;49.50;;;;;;6228589;28;20033;-67
2022/05/17 07:40:53;;;;;;;1.27;0.50;;;21.50;49.40;;;;;;6246428;28;20403;-67
2022/05/17 07:43:54;;;;;;;0.82;0.60;;;21.50;49.40;;;;;;6245881;28;20030;-67
2022/05/17 07:46:55;;;;;;;0.70;0.60;;;21.40;49.30;;;;;;6246401;28;20032;-67
2022/05/17 07:49:55;;;;;;;0.57;0.52;;;21.50;49.50;;;;;;6245989;28;20036;-67
2022/05/17 07:52:56;;;;;;;0.98;0.50;;;21.50;49.40;;;;;;6228277;28;20076;-68
2022/05/17 07:55:56;;;;;;;1.15;0.65;;;21.50;49.40;;;;;;6245690;28;20083;-67
2022/05/17 07:58:57;;;;;;;0.82;0.65;;;21.50;49.50;;;;;;6246083;28;20030;-67
2022/05/17 08:01:57;;;;;;;0.55;0.55;;;21.50;49.50;;;;;;6227991;28;20021;-67
2022/05/17 08:04:59;;;;;;;1.20;0.73;;;21.40;49.40;;;;;;6245815;28;20036;-67
2022/05/17 08:07:59;;;;;;;0.75;0.75;;;21.50;49.50;;;;;;6256680;28;20028;-67
2022/05/17 08:11:01;;;;;;;0.70;0.50;;;21.50;49.50;;;;;;6270298;28;20040;-67
2022/05/17 08:14:01;;;;;;;1.42;0.70;;;21.40;49.40;;;;;;6252602;28;20046;-67
2022/05/17 08:17:04;;;;;;;1.00;0.80;;;21.50;49.50;;;;;;6270192;28;20017;-67
2022/05/17 08:20:09;;;;;;;0.75;0.63;;;21.50;49.50;;;;;;6270397;28;20067;-67
2022/05/17 08:23:10;;;;;;;0.90;0.68;;;21.40;49.40;;;;;;6270053;28;20025;-67
2022/05/17 08:29:30;;;;;;;0.50;0.50;;;21.50;49.50;;;;;;6266769;28;20591;-67
2022/05/17 08:35:57;;;;;;;1.58;0.90;;;21.50;49.50;;;;;;6270050;28;20488;-67
2022/05/17 08:38:57;;;;;;;1.00;0.73;;;21.50;49.50;;;;;;6270003;28;20049;-67
2022/05/17 08:42:08;;;;;;;0.85;0.60;;;21.50;49.50;;;;;;6270042;28;20074;-67
2022/05/17 08:45:17;;;;;;;0.82;0.60;;;21.50;49.50;;;;;;6270027;28;20369;-67
2022/05/17 08:48:18;;;;;;;0.65;0.50;;;21.50;49.50;;;;;;6251918;28;20491;-68
2022/05/17 08:51:37;;;;;;;0.68;0.68;;;21.50;49.50;;;;;;6251853;28;20079;-67
2022/05/17 08:54:56;;;;;;;1.00;0.73;;;21.40;49.40;;;;;;6220636;28;20041;-67
2022/05/17 08:58:01;;;;;;;0.40;0.40;;;21.40;49.40;;;;;;6220907;28;20041;-67
2022/05/17 09:01:07;;;;;;;1.23;0.60;;;21.40;49.40;;;;;;6203071;28;20040;-67
2022/05/17 09:04:34;;;;;;;0.82;0.47;;;21.40;49.50;;;;;;6203115;28;20026;-67
2022/05/17 09:07:56;;;;;;;0.60;0.60;;;21.40;49.50;;;;;;6202996;28;20057;-67
2022/05/17 09:11:20;;;;;;;0.90;0.70;;;21.40;49.50;;;;;;6224774;28;20045;-67
2022/05/17 09:14:24;;;;;;;0.60;0.57;;;21.40;49.50;;;;;;6224976;28;20018;-67
2022/05/17 09:17:27;;;;;;;1.03;0.53;;;21.40;49.50;;;;;;6224798;28;20484;-67
2022/05/17 09:20:33;;;;;;;1.33;0.80;;;21.40;49.50;;;;;;6225342;28;20022;-67
2022/05/17 09:23:33;;;;;;;0.80;0.60;;;21.40;49.50;;;;;;6224716;28;20033;-68
2022/05/17 09:26:34;;;;;;;1.25;0.75;;;21.40;49.50;;;;;;6218764;28;20026;-68
2022/05/17 09:29:46;;;;;;;0.82;0.60;;;21.40;49.50;;;;;;6242332;28;20040;-68
2022/05/17 09:32:48;;;;;;;0.85;0.65;;;21.40;49.60;;;;;;6247732;28;20029;-68
2022/05/17 09:36:00;;;;;;;0.85;0.57;;;21.50;49.60;;;;;;6247587;28;20018;-68
2022/05/17 09:39:01;;;;;;;0.70;0.60;;;21.40;49.50;;;;;;6271711;28;20099;-68
2022/05/17 09:42:06;;;;;;;1.55;0.80;;;21.40;49.50;;;;;;6272433;28;20040;-68
2022/05/17 09:45:14;;;;;;;0.60;0.60;;;21.40;49.60;;;;;;6271923;28;20679;-68
2022/05/17 09:48:30;;;;;;;0.68;0.57;;;21.40;49.70;;;;;;6253219;28;20061;-68
2022/05/17 09:54:53;;;;;;;0.70;0.60;;;21.50;49.70;;;;;;6248709;28;20045;-68
2022/05/17 09:58:01;;;;;;;0.70;0.60;;;21.50;49.70;;;;;;6229979;28;20029;-68
2022/05/17 10:01:38;;;;;;;0.95;0.60;;;21.40;49.60;;;;;;6229664;28;20120;-68
2022/05/17 10:04:42;;;;;;;1.20;0.90;;;21.50;49.80;;;;;;6230911;28;20504;-68
2022/05/17 10:07:52;;;;;;;0.75;0.52;;;21.50;49.70;;;;;;6231556;28;20033;-68
2022/05/17 10:11:16;;;;;;;1.08;0.73;;;21.50;49.70;;;;;;6246777;28;20049;-68
2022/05/17 10:14:36;;;;;;;1.35;0.73;;;21.50;49.90;;;;;;6269250;28;20017;-68
2022/05/17 10:17:43;;;;;;;1.58;0.98;;;21.60;50.00;;;;;;6254046;28;20637;-68
2022/05/17 10:20:49;;;;;;;2.13;0.90;;;21.60;49.70;;;;;;6246268;28;20029;-68
2022/05/17 10:24:00;;;;;;;2.70;1.00;;;21.60;50.20;;;;;;6246133;28;20029;-69
2022/05/17 10:27:30;;;;;;;4.90;0.80;;;21.70;50.00;;;;;;6260278;28;20021;-68
2022/05/17 10:30:52;;;;;;;1.33;0.80;;;21.80;50.40;;;;;;6258086;28;20049;-69
2022/05/17 10:34:09;;;;;;;2.45;0.90;;;21.90;50.20;;;;;;6246692;28;20396;-68
2022/05/17 10:37:19;;;;;;;4.32;0.82;;;21.80;50.20;;;;;;6232432;28;20022;-68
2022/05/17 10:40:30;;;;;;;4.53;1.00;;;21.90;50.40;;;;;;6245247;28;20061;-68
2022/05/17 10:43:44;;;;;;;2.17;1.00;;;21.90;50.20;;;;;;6246615;28;20045;-69
2022/05/17 10:46:55;;;;;;;1.20;0.90;;;22.00;50.30;;;;;;6245204;28;20026;-68
2022/05/17 10:50:22;;;;;;;2.67;0.88;;;22.10;50.80;;;;;;6246401;28;20025;-68
2022/05/17 10:53:46;;;;;;;4.30;1.42;;;22.10;49.90;;;;;;6246030;28;20076;-67
2022/05/17 10:57:29;;;;;;;9.90;2.45;;;22.10;50.10;;;;;;6246778;28;20095;-68
2022/05/17 11:00:37;;;;;;;5.30;1.77;;;22.10;50.10;;;;;;6219389;28;20033;-69
2022/05/17 11:03:53;;;;;;;12.80;2.80;;;22.00;49.90;;;;;;6228259;28;20029;-68
2022/05/17 11:07:25;;;;;;;9.73;1.77;;;22.10;50.10;;;;;;6246128;28;20025;-67
2022/05/17 11:10:46;;;;;;;6.60;1.67;;;22.10;50.30;;;;;;6237834;28;20072;-67
2022/05/17 11:13:53;;;;;;;4.05;1.90;;;22.20;49.90;;;;;;6245685;28;20029;-68
2022/05/17 11:17:07;;;;;;;15.75;2.72;;;22.20;49.80;;;;;;6267160;28;20025;-67
2022/05/17 11:20:15;;;;;;;8.80;2.42;;;22.30;50.00;;;;;;6270404;28;20017;-67
2022/05/17 11:23:45;;;;;;;10.50;2.70;;;22.30;50.00;;;;;;6249901;28;20033;-67
2022/05/17 11:27:13;;;;;;;10.65;2.78;;;22.40;49.90;;;;;;6245256;28;20029;-67
2022/05/17 11:30:44;;;;;;;8.88;2.67;;;22.50;49.90;;;;;;6245230;28;20124;-67
2022/05/17 11:33:45;;;;;;;17.17;3.45;;;22.50;49.70;;;;;;6227330;28;20048;-67
2022/05/17 11:36:45;;;;;;;13.65;3.13;;;22.50;50.20;;;;;;6227143;28;20030;-68
2022/05/17 11:39:49;;;;;;;15.82;4.00;;;22.40;50.00;;;;;;6235328;28;20045;-68
2022/05/17 11:46:30;;;;;;;13.93;3.47;;;22.30;50.30;;;;;;6269665;28;20037;-68
2022/05/17 11:49:41;;;;;;;17.48;3.60;;;22.30;50.10;;;;;;6269789;28;20487;-69
2022/05/17 11:52:46;;;;;;;12.57;3.10;;;22.30;50.10;;;;;;6258542;28;20072;-68
2022/05/17 11:56:20;;;;;;;14.68;3.63;;;22.30;50.20;;;;;;6244621;28;20021;-68
2022/05/17 11:59:29;;;;;;;10.68;2.85;;;22.30;50.10;;;;;;6201171;28;20044;-68
2022/05/17 12:02:48;;;;;;;8.80;2.65;;;22.30;50.00;;;;;;6226412;28;20448;-70
2022/05/17 12:05:50;;;;;;;6.05;2.42;;;22.30;50.10;;;;;;6243827;28;20029;-68
2022/05/17 12:08:50;;;;;;;9.45;3.08;;;22.30;50.10;;;;;;6226685;28;20303;-68
2022/05/17 12:12:27;;;;;;;16.23;3.10;;;22.30;50.10;;;;;;6265543;28;20041;-68
2022/05/17 12:15:47;;;;;;;10.10;2.90;;;22.30;50.00;;;;;;6251909;28;20067;-68
2022/05/17 12:18:59;;;;;;;6.70;2.45;;;22.20;50.00;;;;;;6255534;28;20566;-68
2022/05/17 12:22:20;;;;;;;9.85;2.63;;;22.20;50.00;;;;;;6267028;28;20075;-68
2022/05/17 12:25:34;;;;;;;7.65;2.50;;;22.20;50.00;;;;;;6219742;28;20030;-68
2022/05/17 12:28:39;;;;;;;6.88;2.33;;;22.20;50.00;;;;;;6219855;28;20025;-70
2022/05/17 12:31:40;;;;;;;7.10;2.45;;;22.20;49.90;;;;;;6240275;28;20426;-68
2022/05/17 12:34:53;;;;;;;9.73;2.50;;;22.20;49.90;;;;;;6261993;28;20079;-68
2022/05/17 12:37:55;;;;;;;8.52;2.35;;;22.30;50.50;;;;;;6268716;28;20017;-67
2022/05/17 12:44:23;;;;;;;7.90;2.58;;;22.40;50.20;;;;;;6247944;28;20608;-68
2022/05/17 12:47:50;;;;;;;5.53;2.50;;;22.30;50.00;;;;;;6253200;28;20043;-68
2022/05/17 12:50:56;;;;;;;7.13;2.63;;;22.30;50.10;;;;;;6248283;28;20056;-69
2022/05/17 12:54:03;;;;;;;7.15;2.75;;;22.30;50.10;;;;;;6220583;28;20033;-68
2022/05/17 12:57:32;;;;;;;6.40;2.00;;;22.30;50.10;;;;;;6240116;28;20035;-69
2022/05/17 13:00:33;;;;;;;7.22;2.20;;;22.30;50.00;;;;;;6248319;28;20025;-68
2022/05/17 13:03:33;;;;;;;6.95;1.85;;;22.30;50.80;;;;;;6237172;28;20504;-68
2022/05/17 13:06:37;;;;;;;6.35;2.25;;;22.30;50.00;;;;;;6233755;28;20082;-68
2022/05/17 13:09:38;;;;;;;8.10;2.40;;;22.30;50.10;;;;;;6251362;28;20052;-69
2022/05/17 13:12:42;;;;;;;4.05;1.80;;;22.30;50.00;;;;;;6272202;28;20079;-68
2022/05/17 13:15:59;;;;;;;6.65;1.92;;;22.30;50.00;;;;;;6267863;28;20057;-68
2022/05/17 13:19:03;;;;;;;5.25;1.63;;;22.30;50.10;;;;;;6240195;28;20053;-68
2022/05/17 13:22:05;;;;;;;4.20;1.42;;;22.30;50.00;;;;;;6231495;28;20018;-68
2022/05/17 13:25:07;;;;;;;4.93;2.10;;;22.30;50.10;;;;;;6245451;28;20026;-68
2022/05/17 13:28:08;;;;;;;4.22;2.05;;;22.30;50.10;;;;;;6240280;28;20038;-68
2022/05/17 13:31:14;;;;;;;4.07;1.77;;;22.30;50.00;;;;;;6229675;28;20028;-68
2022/05/17 13:34:17;;;;;;;4.10;1.75;;;22.30;50.00;;;;;;6229224;28;20033;-67
2022/05/17 13:37:23;;;;;;;4.72;1.73;;;22.30;50.20;;;;;;6247209;28;20018;-68
2022/05/17 13:40:43;;;;;;;3.83;1.70;;;22.30;49.80;;;;;;6245501;28;20026;-67
2022/05/17 13:43:43;;;;;;;4.45;1.70;;;22.40;49.60;;;;;;6228819;28;20021;-67
2022/05/17 13:46:50;;;;;;;2.83;1.52;;;22.50;49.70;;;;;;6229129;28;20033;-67
2022/05/17 13:49:51;;;;;;;7.13;1.77;;;22.60;49.70;;;;;;6246467;28;20131;-67
2022/05/17 13:52:58;;;;;;;5.25;1.70;;;22.50;49.70;;;;;;6228816;28;20103;-67
2022/05/17 13:55:59;;;;;;;6.03;1.70;;;22.40;49.90;;;;;;6234559;28;20026;-68
2022/05/17 13:59:02;;;;;;;3.65;1.85;;;22.40;50.10;;;;;;6230124;28;20483;-67
2022/05/17 14:02:13;;;;;;;4.43;1.98;;;22.30;50.00;;;;;;6234516;28;20807;-68
2022/05/17 14:05:29;;;;;;;4.22;2.03;;;22.30;50.10;;;;;;6238824;28;20040;-67
2022/05/17 14:11:54;;;;;;;4.53;2.03;;;22.30;50.20;;;;;;6241879;28;20046;-68
2022/05/17 14:14:54;;;;;;;4.18;1.70;;;22.20;50.10;;;;;;6246072;28;20017;-68
2022/05/17 14:17:55;;;;;;;3.80;1.63;;;22.20;50.10;;;;;;6228401;28;20025;-68
2022/05/17 14:20:57;;;;;;;2.55;1.75;;;22.20;50.10;;;;;;6222774;28;20033;-68
2022/05/17 14:23:59;;;;;;;5.47;1.98;;;22.30;50.30;;;;;;6220648;28;20076;-67
2022/05/17 14:27:00;;;;;;;3.10;1.60;;;22.30;50.20;;;;;;6246147;28;20022;-67
2022/05/17 14:30:02;;;;;;;2.53;1.23;;;22.20;50.10;;;;;;6244845;28;20026;-68
2022/05/17 14:33:04;;;;;;;4.40;1.60;;;22.20;50.20;;;;;;6239536;28;20029;-68
2022/05/17 14:36:12;;;;;;;2.47;1.45;;;22.20;50.20;;;;;;6268225;28;20052;-67
2022/05/17 14:39:14;;;;;;;3.38;1.90;;;22.20;50.10;;;;;;6270127;28;20177;-68
2022/05/17 14:42:15;;;;;;;2.35;1.30;;;22.20;50.20;;;;;;6270037;28;20028;-68
2022/05/17 14:45:15;;;;;;;5.38;1.50;;;22.20;50.20;;;;;;6268278;28;20068;-67
2022/05/17 14:48:20;;;;;;;2.28;1.63;;;22.20;50.20;;;;;;6270145;28;20068;-70
2022/05/17 14:51:26;;;;;;;;;;;22.20;50.20;;;;;;6224101;28;20030;-67
2022/05/17 14:54:27;;;;;;;3.70;1.55;;;22.30;50.30;;;;;;6239183;28;19996;-68
2022/05/17 14:57:28;;;;;;;6.53;1.58;;;22.30;50.20;;;;;;6220500;28;20029;-67
2022/05/17 15:00:29;;;;;;;3.22;1.55;;;22.20;50.20;;;;;;6234059;28;20029;-68
2022/05/17 15:03:35;;;;;;;2.10;1.30;;;22.20;50.20;;;;;;6245932;28;20056;-67
2022/05/17 15:06:53;;;;;;;2.67;1.48;;;22.20;50.20;;;;;;6226902;28;20033;-67
2022/05/17 15:09:57;;;;;;;1.70;1.02;;;22.30;50.30;;;;;;6221102;28;20525;-67
2022/05/17 15:12:58;;;;;;;2.37;1.33;;;22.50;50.00;;;;;;6219180;28;20053;-67
2022/05/17 15:16:02;;;;;;;2.22;1.23;;;22.50;50.00;;;;;;6203292;28;20021;-68
2022/05/17 15:19:03;;;;;;;2.55;1.30;;;22.60;50.00;;;;;;6220669;28;20040;-68
2022/05/17 15:22:05;;;;;;;2.50;1.30;;;22.50;48.80;;;;;;6226930;28;20029;-68
2022/05/17 15:25:06;;;;;;;5.53;2.13;;;22.30;47.80;;;;;;6202705;28;20489;-68
2022/05/17 15:28:07;;;;;;;10.32;2.45;;;22.30;47.40;;;;;;6202778;28;20032;-68
2022/05/17 15:31:11;;;;;;;11.45;2.75;;;22.40;47.10;;;;;;6236119;28;20399;-68
2022/05/17 15:34:14;;;;;;;13.57;3.40;;;22.50;46.80;;;;;;6226807;28;20056;-68
2022/05/17 15:37:17;;;;;;;14.20;3.55;;;22.60;46.60;;;;;;6244593;28;20477;-68
2022/05/17 15:40:19;;;;;;;14.30;3.38;;;22.70;46.40;;;;;;6244954;28;20022;-68
2022/05/17 15:43:19;;;;;;;16.05;3.78;;;22.80;46.20;;;;;;6226739;28;20038;-67
2022/05/17 15:46:23;;;;;;;16.58;5.35;;;22.90;46.20;;;;;;6244422;28;20029;-68
2022/05/17 15:56:08;;;;;;;18.83;4.97;;;23.00;45.90;;;;;;6228239;28;20030;-67
2022/05/17 15:59:09;;;;;;;15.50;4.70;;;23.00;45.80;;;;;;6238862;28;20025;-68
2022/05/17 16:02:10;;;;;;;20.70;4.75;;;23.00;45.80;;;;;;6243728;28;20067;-67
2022/05/17 16:05:12;;;;;;;21.52;5.07;;;23.00;45.60;;;;;;6244256;28;20029;-67
2022/05/17 16:08:13;;;;;;;16.42;5.15;;;23.10;45.50;;;;;;6242833;28;20033;-70
2022/05/17 16:14:33;;;;;;;19.40;5.10;;;23.10;45.40;;;;;;6243893;28;20186;-70
2022/05/17 16:17:34;;;;;;;17.67;4.75;;;23.10;45.40;;;;;;6241679;28;20040;-69
2022/05/17 16:20:36;;;;;;;17.15;4.40;;;23.10;45.50;;;;;;6242437;28;20027;-69
2022/05/17 16:23:36;;;;;;;14.90;4.28;;;23.10;45.30;;;;;;6243147;28;20025;-68
2022/05/17 16:26:37;;;;;;;12.45;4.07;;;23.10;45.40;;;;;;6225993;28;20053;-65
2022/05/17 16:29:38;;;;;;;14.52;4.70;;;23.10;45.50;;;;;;6242977;28;20140;-65
2022/05/17 16:32:40;;;;;;;10.82;4.13;;;23.00;45.60;;;;;;6225615;28;20026;-65
2022/05/17 16:35:42;;;;;;;11.38;3.92;;;23.00;45.70;;;;;;6243190;28;20068;-65